sensor_id;sensor_type;location;lat;lon;timestamp;temperature;humidity
55693;DHT22;41590;53.366;5.212;2023-02-13T00:01:57;5.90;99.90
55693;DHT22;41590;53.366;5.212;2023-02-13T00:05:08;5.60;99.90
55693;DHT22;41590;53.366;5.212;2023-02-13T00:07:34;5.80;99.90
55693;DHT22;41590;53.366;5.212;2023-02-13T00:10:00;5.80;99.90
55693;DHT22;41590;53.366;5.212;2023-02-13T00:12:27;5.80;99.90
55693;DHT22;41590;53.366;5.212;2023-02-13T00:14:55;5.80;99.90
55693;DHT22;41590;53.366;5.212;2023-02-13T00:17:22;5.50;99.90
55693;DHT22;41590;53.366;5.212;2023-02-13T00:19:54;5.70;99.90
55693;DHT22;41590;53.366;5.212;2023-02-13T00:22:19;5.50;99.90
55693;DHT22;41590;53.366;5.212;2023-02-13T00:24:50;5.60;99.90
55693;DHT22;41590;53.366;5.212;2023-02-13T00:27:18;5.50;99.90
55693;DHT22;41590;53.366;5.212;2023-02-13T00:29:50;5.60;99.90
55693;DHT22;41590;53.366;5.212;2023-02-13T00:32:16;5.50;99.90
55693;DHT22;41590;53.366;5.212;2023-02-13T00:34:43;5.50;99.90
55693;DHT22;41590;53.366;5.212;2023-02-13T00:37:09;5.50;99.90
55693;DHT22;41590;53.366;5.212;2023-02-13T00:39:38;5.50;99.90
55693;DHT22;41590;53.366;5.212;2023-02-13T00:42:11;5.70;99.90
55693;DHT22;41590;53.366;5.212;2023-02-13T00:44:38;5.80;99.90
55693;DHT22;41590;53.366;5.212;2023-02-13T00:47:03;5.60;99.90
55693;DHT22;41590;53.366;5.212;2023-02-13T00:49:29;5.80;99.90
55693;DHT22;41590;53.366;5.212;2023-02-13T00:51:57;5.70;99.90
55693;DHT22;41590;53.366;5.212;2023-02-13T00:54:24;5.80;99.90
55693;DHT22;41590;53.366;5.212;2023-02-13T00:56:51;5.90;99.90
55693;DHT22;41590;53.366;5.212;2023-02-13T00:59:19;5.60;99.90
55693;DHT22;41590;53.366;5.212;2023-02-13T01:01:45;5.90;99.90
55693;DHT22;41590;53.366;5.212;2023-02-13T01:04:10;5.60;99.90
55693;DHT22;41590;53.366;5.212;2023-02-13T01:06:40;5.80;99.90
55693;DHT22;41590;53.366;5.212;2023-02-13T01:09:22;5.80;99.90
55693;DHT22;41590;53.366;5.212;2023-02-13T01:12:01;5.70;99.90
55693;DHT22;41590;53.366;5.212;2023-02-13T01:14:28;5.70;99.90
55693;DHT22;41590;53.366;5.212;2023-02-13T01:16:54;5.70;99.90
55693;DHT22;41590;53.366;5.212;2023-02-13T01:19:23;5.90;99.90
55693;DHT22;41590;53.366;5.212;2023-02-13T01:21:49;5.70;99.90
55693;DHT22;41590;53.366;5.212;2023-02-13T01:24:15;5.80;99.90
55693;DHT22;41590;53.366;5.212;2023-02-13T01:26:41;5.80;99.90
55693;DHT22;41590;53.366;5.212;2023-02-13T01:29:11;5.80;99.90
55693;DHT22;41590;53.366;5.212;2023-02-13T01:31:37;5.80;99.90
55693;DHT22;41590;53.366;5.212;2023-02-13T01:34:05;5.90;99.90
55693;DHT22;41590;53.366;5.212;2023-02-13T01:36:32;5.70;99.90
55693;DHT22;41590;53.366;5.212;2023-02-13T01:41:26;5.70;99.90
55693;DHT22;41590;53.366;5.212;2023-02-13T01:43:55;5.90;99.90
55693;DHT22;41590;53.366;5.212;2023-02-13T01:46:32;5.80;99.90
55693;DHT22;41590;53.366;5.212;2023-02-13T01:51:36;5.90;99.90
55693;DHT22;41590;53.366;5.212;2023-02-13T01:54:17;5.90;99.90
55693;DHT22;41590;53.366;5.212;2023-02-13T01:56:51;5.70;99.90
55693;DHT22;41590;53.366;5.212;2023-02-13T01:59:26;5.70;99.90
55693;DHT22;41590;53.366;5.212;2023-02-13T02:01:56;5.70;99.90
55693;DHT22;41590;53.366;5.212;2023-02-13T02:04:32;5.80;99.90
55693;DHT22;41590;53.366;5.212;2023-02-13T02:07:06;5.60;99.90
55693;DHT22;41590;53.366;5.212;2023-02-13T02:09:40;5.60;99.90
55693;DHT22;41590;53.366;5.212;2023-02-13T02:12:48;5.70;99.90
55693;DHT22;41590;53.366;5.212;2023-02-13T02:15:24;5.60;99.90
55693;DHT22;41590;53.366;5.212;2023-02-13T02:17:50;5.80;99.90
55693;DHT22;41590;53.366;5.212;2023-02-13T02:35:25;5.80;99.90
55693;DHT22;41590;53.366;5.212;2023-02-13T02:38:11;5.80;99.90
55693;DHT22;41590;53.366;5.212;2023-02-13T02:41:20;5.70;99.90
55693;DHT22;41590;53.366;5.212;2023-02-13T02:58:08;5.70;99.90
55693;DHT22;41590;53.366;5.212;2023-02-13T03:00:54;5.60;99.90
55693;DHT22;41590;53.366;5.212;2023-02-13T03:03:42;5.40;99.90
55693;DHT22;41590;53.366;5.212;2023-02-13T03:06:39;5.70;99.90
55693;DHT22;41590;53.366;5.212;2023-02-13T03:09:19;5.50;99.90
55693;DHT22;41590;53.366;5.212;2023-02-13T03:12:14;5.50;99.90
55693;DHT22;41590;53.366;5.212;2023-02-13T03:15:02;5.50;99.90
55693;DHT22;41590;53.366;5.212;2023-02-13T03:17:28;5.40;99.90
55693;DHT22;41590;53.366;5.212;2023-02-13T03:24:16;5.40;99.90
55693;DHT22;41590;53.366;5.212;2023-02-13T03:29:32;5.50;99.90
55693;DHT22;41590;53.366;5.212;2023-02-13T03:38:07;5.50;99.90
55693;DHT22;41590;53.366;5.212;2023-02-13T03:44:22;5.40;99.90
55693;DHT22;41590;53.366;5.212;2023-02-13T03:47:00;5.50;99.90
55693;DHT22;41590;53.366;5.212;2023-02-13T03:49:41;5.50;99.90
55693;DHT22;41590;53.366;5.212;2023-02-13T03:52:48;5.50;99.90
55693;DHT22;41590;53.366;5.212;2023-02-13T03:55:35;5.40;99.90
55693;DHT22;41590;53.366;5.212;2023-02-13T03:58:28;5.50;99.90
55693;DHT22;41590;53.366;5.212;2023-02-13T04:01:16;5.60;99.90
55693;DHT22;41590;53.366;5.212;2023-02-13T04:06:43;5.60;99.90
55693;DHT22;41590;53.366;5.212;2023-02-13T04:09:11;5.60;99.90
55693;DHT22;41590;53.366;5.212;2023-02-13T04:17:08;5.60;99.90
55693;DHT22;41590;53.366;5.212;2023-02-13T04:19:36;5.40;99.90
55693;DHT22;41590;53.366;5.212;2023-02-13T04:22:02;5.50;99.90
55693;DHT22;41590;53.366;5.212;2023-02-13T04:24:28;5.60;99.90
55693;DHT22;41590;53.366;5.212;2023-02-13T04:27:05;5.40;99.90
55693;DHT22;41590;53.366;5.212;2023-02-13T04:29:31;5.40;99.90
55693;DHT22;41590;53.366;5.212;2023-02-13T04:31:57;5.60;99.90
55693;DHT22;41590;53.366;5.212;2023-02-13T04:34:23;5.40;99.90
55693;DHT22;41590;53.366;5.212;2023-02-13T04:36:50;5.40;99.90
55693;DHT22;41590;53.366;5.212;2023-02-13T04:39:17;5.40;99.90
55693;DHT22;41590;53.366;5.212;2023-02-13T04:41:43;5.50;99.90
55693;DHT22;41590;53.366;5.212;2023-02-13T04:44:09;5.40;99.90
55693;DHT22;41590;53.366;5.212;2023-02-13T04:46:34;5.60;99.90
55693;DHT22;41590;53.366;5.212;2023-02-13T04:49:03;5.30;99.90
55693;DHT22;41590;53.366;5.212;2023-02-13T04:51:29;5.60;99.90
55693;DHT22;41590;53.366;5.212;2023-02-13T04:53:58;5.30;99.90
55693;DHT22;41590;53.366;5.212;2023-02-13T04:56:25;5.50;99.90
55693;DHT22;41590;53.366;5.212;2023-02-13T04:58:52;5.20;99.90
55693;DHT22;41590;53.366;5.212;2023-02-13T05:01:21;5.50;99.90
55693;DHT22;41590;53.366;5.212;2023-02-13T05:03:47;5.30;99.90
55693;DHT22;41590;53.366;5.212;2023-02-13T05:06:14;5.30;99.90
55693;DHT22;41590;53.366;5.212;2023-02-13T05:11:07;5.50;99.90
55693;DHT22;41590;53.366;5.212;2023-02-13T05:13:34;5.20;99.90
55693;DHT22;41590;53.366;5.212;2023-02-13T05:16:00;5.50;99.90
55693;DHT22;41590;53.366;5.212;2023-02-13T05:18:26;5.30;99.90
55693;DHT22;41590;53.366;5.212;2023-02-13T05:20:55;5.40;99.90
55693;DHT22;41590;53.366;5.212;2023-02-13T05:23:40;5.40;99.90
55693;DHT22;41590;53.366;5.212;2023-02-13T05:26:08;5.10;99.90
55693;DHT22;41590;53.366;5.212;2023-02-13T05:28:37;5.10;99.90
55693;DHT22;41590;53.366;5.212;2023-02-13T05:31:21;5.30;99.90
55693;DHT22;41590;53.366;5.212;2023-02-13T05:33:49;5.50;99.90
55693;DHT22;41590;53.366;5.212;2023-02-13T05:36:14;5.20;99.90
55693;DHT22;41590;53.366;5.212;2023-02-13T05:38:41;5.50;99.90
55693;DHT22;41590;53.366;5.212;2023-02-13T05:41:09;5.30;99.90
55693;DHT22;41590;53.366;5.212;2023-02-13T05:43:38;5.50;99.90
55693;DHT22;41590;53.366;5.212;2023-02-13T05:46:08;5.10;99.90
55693;DHT22;41590;53.366;5.212;2023-02-13T05:48:34;5.20;99.90
55693;DHT22;41590;53.366;5.212;2023-02-13T05:51:00;5.30;99.90
55693;DHT22;41590;53.366;5.212;2023-02-13T05:53:26;5.20;99.90
55693;DHT22;41590;53.366;5.212;2023-02-13T05:55:55;5.50;99.90
55693;DHT22;41590;53.366;5.212;2023-02-13T05:58:21;5.20;99.90
55693;DHT22;41590;53.366;5.212;2023-02-13T06:00:47;5.50;99.90
55693;DHT22;41590;53.366;5.212;2023-02-13T06:03:13;5.30;99.90
55693;DHT22;41590;53.366;5.212;2023-02-13T06:05:39;5.50;99.90
55693;DHT22;41590;53.366;5.212;2023-02-13T06:08:07;5.10;99.90
55693;DHT22;41590;53.366;5.212;2023-02-13T06:10:34;5.10;99.90
55693;DHT22;41590;53.366;5.212;2023-02-13T06:13:00;5.10;99.90
55693;DHT22;41590;53.366;5.212;2023-02-13T06:15:27;5.60;99.90
55693;DHT22;41590;53.366;5.212;2023-02-13T06:17:53;5.40;99.90
55693;DHT22;41590;53.366;5.212;2023-02-13T06:20:23;5.20;99.90
55693;DHT22;41590;53.366;5.212;2023-02-13T06:22:49;5.30;99.90
55693;DHT22;41590;53.366;5.212;2023-02-13T06:25:18;5.40;99.90
55693;DHT22;41590;53.366;5.212;2023-02-13T06:27:44;5.20;99.90
55693;DHT22;41590;53.366;5.212;2023-02-13T06:30:10;5.30;99.90
55693;DHT22;41590;53.366;5.212;2023-02-13T06:32:37;5.10;99.90
55693;DHT22;41590;53.366;5.212;2023-02-13T06:35:03;5.40;99.90
55693;DHT22;41590;53.366;5.212;2023-02-13T06:37:30;5.40;99.90
55693;DHT22;41590;53.366;5.212;2023-02-13T06:40:00;5.10;99.90
55693;DHT22;41590;53.366;5.212;2023-02-13T06:42:52;5.50;99.90
55693;DHT22;41590;53.366;5.212;2023-02-13T06:45:18;5.20;99.90
55693;DHT22;41590;53.366;5.212;2023-02-13T06:47:46;5.50;99.90
55693;DHT22;41590;53.366;5.212;2023-02-13T06:50:16;5.30;99.90
55693;DHT22;41590;53.366;5.212;2023-02-13T06:52:47;5.60;99.90
55693;DHT22;41590;53.366;5.212;2023-02-13T06:55:14;5.60;99.90
55693;DHT22;41590;53.366;5.212;2023-02-13T06:57:44;5.50;99.90
55693;DHT22;41590;53.366;5.212;2023-02-13T07:00:15;5.60;99.90
55693;DHT22;41590;53.366;5.212;2023-02-13T07:02:44;5.60;99.90
55693;DHT22;41590;53.366;5.212;2023-02-13T07:05:22;5.60;99.90
55693;DHT22;41590;53.366;5.212;2023-02-13T07:07:51;5.60;99.90
55693;DHT22;41590;53.366;5.212;2023-02-13T07:10:17;5.30;99.90
55693;DHT22;41590;53.366;5.212;2023-02-13T07:12:46;5.40;99.90
55693;DHT22;41590;53.366;5.212;2023-02-13T07:15:40;5.50;99.90
55693;DHT22;41590;53.366;5.212;2023-02-13T07:18:16;5.50;99.90
55693;DHT22;41590;53.366;5.212;2023-02-13T07:20:59;6.20;99.90
55693;DHT22;41590;53.366;5.212;2023-02-13T07:24:18;5.50;99.90
55693;DHT22;41590;53.366;5.212;2023-02-13T07:27:14;5.20;99.90
55693;DHT22;41590;53.366;5.212;2023-02-13T07:41:09;5.10;99.90
55693;DHT22;41590;53.366;5.212;2023-02-13T07:47:18;5.30;99.90
55693;DHT22;41590;53.366;5.212;2023-02-13T07:50:28;5.80;99.90
55693;DHT22;41590;53.366;5.212;2023-02-13T07:53:19;5.20;99.90
55693;DHT22;41590;53.366;5.212;2023-02-13T07:56:07;5.30;99.90
55693;DHT22;41590;53.366;5.212;2023-02-13T07:58:37;5.80;99.90
55693;DHT22;41590;53.366;5.212;2023-02-13T08:05:19;5.50;99.90
55693;DHT22;41590;53.366;5.212;2023-02-13T08:08:06;5.80;99.90
55693;DHT22;41590;53.366;5.212;2023-02-13T08:10:32;5.50;99.90
55693;DHT22;41590;53.366;5.212;2023-02-13T08:13:18;5.80;99.90
55693;DHT22;41590;53.366;5.212;2023-02-13T08:15:47;5.60;99.90
55693;DHT22;41590;53.366;5.212;2023-02-13T08:18:15;5.70;99.90
55693;DHT22;41590;53.366;5.212;2023-02-13T08:20:42;5.90;99.90
55693;DHT22;41590;53.366;5.212;2023-02-13T08:23:09;5.90;99.90
55693;DHT22;41590;53.366;5.212;2023-02-13T08:25:38;5.60;99.90
55693;DHT22;41590;53.366;5.212;2023-02-13T08:28:04;5.60;99.90
55693;DHT22;41590;53.366;5.212;2023-02-13T08:30:32;5.70;99.90
55693;DHT22;41590;53.366;5.212;2023-02-13T08:32:58;5.90;99.90
55693;DHT22;41590;53.366;5.212;2023-02-13T08:35:25;6.10;99.90
55693;DHT22;41590;53.366;5.212;2023-02-13T08:37:56;5.90;99.90
55693;DHT22;41590;53.366;5.212;2023-02-13T08:40:25;6.10;99.90
55693;DHT22;41590;53.366;5.212;2023-02-13T08:42:52;5.80;99.90
55693;DHT22;41590;53.366;5.212;2023-02-13T08:45:23;5.80;99.90
55693;DHT22;41590;53.366;5.212;2023-02-13T08:47:49;5.80;99.90
55693;DHT22;41590;53.366;5.212;2023-02-13T08:50:15;6.30;99.90
55693;DHT22;41590;53.366;5.212;2023-02-13T08:52:43;6.10;99.90
55693;DHT22;41590;53.366;5.212;2023-02-13T08:55:10;6.00;99.90
55693;DHT22;41590;53.366;5.212;2023-02-13T08:57:36;6.10;99.90
55693;DHT22;41590;53.366;5.212;2023-02-13T09:00:02;6.10;99.90
55693;DHT22;41590;53.366;5.212;2023-02-13T09:02:31;6.30;99.90
55693;DHT22;41590;53.366;5.212;2023-02-13T09:04:56;6.00;99.90
55693;DHT22;41590;53.366;5.212;2023-02-13T09:10:25;6.20;99.90
55693;DHT22;41590;53.366;5.212;2023-02-13T09:12:53;6.00;99.90
55693;DHT22;41590;53.366;5.212;2023-02-13T09:15:19;6.40;99.90
55693;DHT22;41590;53.366;5.212;2023-02-13T09:17:47;6.40;99.90
55693;DHT22;41590;53.366;5.212;2023-02-13T09:20:13;6.50;99.90
55693;DHT22;41590;53.366;5.212;2023-02-13T09:22:40;6.10;99.90
55693;DHT22;41590;53.366;5.212;2023-02-13T09:25:07;6.20;99.90
55693;DHT22;41590;53.366;5.212;2023-02-13T09:27:33;6.60;99.90
55693;DHT22;41590;53.366;5.212;2023-02-13T09:29:59;6.60;99.90
55693;DHT22;41590;53.366;5.212;2023-02-13T09:32:27;6.20;99.90
55693;DHT22;41590;53.366;5.212;2023-02-13T09:34:53;6.60;99.90
55693;DHT22;41590;53.366;5.212;2023-02-13T09:37:19;6.30;99.90
55693;DHT22;41590;53.366;5.212;2023-02-13T09:39:44;6.70;99.90
55693;DHT22;41590;53.366;5.212;2023-02-13T09:42:25;6.60;99.90
55693;DHT22;41590;53.366;5.212;2023-02-13T09:44:56;6.70;99.90
55693;DHT22;41590;53.366;5.212;2023-02-13T09:47:35;6.30;99.90
55693;DHT22;41590;53.366;5.212;2023-02-13T09:58:03;6.50;99.90
55693;DHT22;41590;53.366;5.212;2023-02-13T10:00:40;6.50;99.90
55693;DHT22;41590;53.366;5.212;2023-02-13T10:15:03;6.40;99.90
55693;DHT22;41590;53.366;5.212;2023-02-13T10:17:39;6.80;99.90
55693;DHT22;41590;53.366;5.212;2023-02-13T10:22:50;6.50;99.90
55693;DHT22;41590;53.366;5.212;2023-02-13T10:25:23;6.90;99.90
55693;DHT22;41590;53.366;5.212;2023-02-13T10:28:18;6.50;99.90
55693;DHT22;41590;53.366;5.212;2023-02-13T10:30:51;6.90;99.90
55693;DHT22;41590;53.366;5.212;2023-02-13T10:33:27;6.50;99.90
55693;DHT22;41590;53.366;5.212;2023-02-13T10:36:34;6.80;99.90
55693;DHT22;41590;53.366;5.212;2023-02-13T10:41:43;6.50;99.90
55693;DHT22;41590;53.366;5.212;2023-02-13T10:50:25;7.00;99.90
55693;DHT22;41590;53.366;5.212;2023-02-13T11:04:06;6.80;99.90
55693;DHT22;41590;53.366;5.212;2023-02-13T11:06:35;6.90;99.90
55693;DHT22;41590;53.366;5.212;2023-02-13T11:09:04;6.90;99.90
55693;DHT22;41590;53.366;5.212;2023-02-13T11:14:22;7.10;99.90
55693;DHT22;41590;53.366;5.212;2023-02-13T11:16:55;6.90;99.90
55693;DHT22;41590;53.366;5.212;2023-02-13T11:19:27;6.80;99.90
55693;DHT22;41590;53.366;5.212;2023-02-13T11:21:58;7.00;99.90
55693;DHT22;41590;53.366;5.212;2023-02-13T11:24:25;7.10;99.90
55693;DHT22;41590;53.366;5.212;2023-02-13T11:27:00;7.10;99.90
55693;DHT22;41590;53.366;5.212;2023-02-13T11:29:29;7.20;99.90
55693;DHT22;41590;53.366;5.212;2023-02-13T11:32:23;7.30;99.90
55693;DHT22;41590;53.366;5.212;2023-02-13T11:34:49;7.30;99.90
55693;DHT22;41590;53.366;5.212;2023-02-13T11:39:53;7.10;99.90
55693;DHT22;41590;53.366;5.212;2023-02-13T11:44:51;7.30;99.90
55693;DHT22;41590;53.366;5.212;2023-02-13T11:47:40;7.20;99.90
55693;DHT22;41590;53.366;5.212;2023-02-13T11:50:35;7.00;99.90
55693;DHT22;41590;53.366;5.212;2023-02-13T12:00:39;7.30;99.90
55693;DHT22;41590;53.366;5.212;2023-02-13T12:03:26;7.20;99.90
55693;DHT22;41590;53.366;5.212;2023-02-13T12:06:13;7.20;99.90
55693;DHT22;41590;53.366;5.212;2023-02-13T12:08:45;7.00;99.90
55693;DHT22;41590;53.366;5.212;2023-02-13T12:14:42;7.00;99.90
55693;DHT22;41590;53.366;5.212;2023-02-13T12:17:17;7.20;99.90
55693;DHT22;41590;53.366;5.212;2023-02-13T12:23:28;7.10;99.90
55693;DHT22;41590;53.366;5.212;2023-02-13T12:26:25;7.40;99.90
55693;DHT22;41590;53.366;5.212;2023-02-13T12:32:37;7.60;99.90
55693;DHT22;41590;53.366;5.212;2023-02-13T12:38:45;7.70;99.90
55693;DHT22;41590;53.366;5.212;2023-02-13T12:52:24;7.70;99.90
55693;DHT22;41590;53.366;5.212;2023-02-13T13:00:57;7.80;99.90
55693;DHT22;41590;53.366;5.212;2023-02-13T13:14:59;8.00;99.90
55693;DHT22;41590;53.366;5.212;2023-02-13T13:31:00;8.40;99.90
55693;DHT22;41590;53.366;5.212;2023-02-13T13:33:30;8.40;99.90
55693;DHT22;41590;53.366;5.212;2023-02-13T13:42:16;8.70;99.90
55693;DHT22;41590;53.366;5.212;2023-02-13T13:50:30;8.40;99.90
55693;DHT22;41590;53.366;5.212;2023-02-13T13:53:14;8.20;99.90
55693;DHT22;41590;53.366;5.212;2023-02-13T14:07:13;8.30;99.90
55693;DHT22;41590;53.366;5.212;2023-02-13T14:09:43;8.30;99.90
55693;DHT22;41590;53.366;5.212;2023-02-13T14:14:57;8.30;99.90
55693;DHT22;41590;53.366;5.212;2023-02-13T14:20:31;8.10;99.90
55693;DHT22;41590;53.366;5.212;2023-02-13T14:23:29;8.20;99.90
55693;DHT22;41590;53.366;5.212;2023-02-13T14:31:41;8.00;99.90
55693;DHT22;41590;53.366;5.212;2023-02-13T14:37:57;8.00;99.90
55693;DHT22;41590;53.366;5.212;2023-02-13T14:40:47;8.00;99.90
55693;DHT22;41590;53.366;5.212;2023-02-13T14:45:54;8.20;99.90
55693;DHT22;41590;53.366;5.212;2023-02-13T14:48:57;8.20;99.90
55693;DHT22;41590;53.366;5.212;2023-02-13T14:52:03;8.10;99.90
55693;DHT22;41590;53.366;5.212;2023-02-13T14:54:37;8.00;99.90
55693;DHT22;41590;53.366;5.212;2023-02-13T14:57:09;8.10;99.90
55693;DHT22;41590;53.366;5.212;2023-02-13T14:59:42;8.30;99.90
55693;DHT22;41590;53.366;5.212;2023-02-13T15:02:20;8.20;99.90
55693;DHT22;41590;53.366;5.212;2023-02-13T15:04:54;8.30;99.90
55693;DHT22;41590;53.366;5.212;2023-02-13T15:07:27;8.30;99.90
55693;DHT22;41590;53.366;5.212;2023-02-13T15:09:58;8.00;99.90
55693;DHT22;41590;53.366;5.212;2023-02-13T15:12:32;8.20;99.90
55693;DHT22;41590;53.366;5.212;2023-02-13T15:15:01;8.00;99.90
55693;DHT22;41590;53.366;5.212;2023-02-13T15:17:40;8.00;99.90
55693;DHT22;41590;53.366;5.212;2023-02-13T15:22:44;8.10;99.90
55693;DHT22;41590;53.366;5.212;2023-02-13T15:27:55;7.90;99.90
55693;DHT22;41590;53.366;5.212;2023-02-13T15:30:26;7.80;99.90
55693;DHT22;41590;53.366;5.212;2023-02-13T15:33:15;8.00;99.90
55693;DHT22;41590;53.366;5.212;2023-02-13T15:36:03;7.70;99.90
55693;DHT22;41590;53.366;5.212;2023-02-13T15:38:35;8.10;99.90
55693;DHT22;41590;53.366;5.212;2023-02-13T15:44:17;7.90;99.90
55693;DHT22;41590;53.366;5.212;2023-02-13T15:46:49;8.00;99.90
55693;DHT22;41590;53.366;5.212;2023-02-13T15:49:21;8.00;99.90
55693;DHT22;41590;53.366;5.212;2023-02-13T15:51:50;7.70;99.90
55693;DHT22;41590;53.366;5.212;2023-02-13T15:54:28;7.50;99.90
55693;DHT22;41590;53.366;5.212;2023-02-13T15:59:30;7.60;99.90
55693;DHT22;41590;53.366;5.212;2023-02-13T16:02:01;7.90;99.90
55693;DHT22;41590;53.366;5.212;2023-02-13T16:04:29;7.90;99.90
55693;DHT22;41590;53.366;5.212;2023-02-13T16:06:57;7.80;99.90
55693;DHT22;41590;53.366;5.212;2023-02-13T16:09:38;7.70;99.90
55693;DHT22;41590;53.366;5.212;2023-02-13T16:12:24;7.80;99.90
55693;DHT22;41590;53.366;5.212;2023-02-13T16:15:00;7.30;99.90
55693;DHT22;41590;53.366;5.212;2023-02-13T16:17:32;7.60;99.90
55693;DHT22;41590;53.366;5.212;2023-02-13T16:20:02;7.60;99.90
55693;DHT22;41590;53.366;5.212;2023-02-13T16:25:24;7.60;99.90
55693;DHT22;41590;53.366;5.212;2023-02-13T16:27:54;7.60;99.90
55693;DHT22;41590;53.366;5.212;2023-02-13T16:38:40;7.40;99.90
55693;DHT22;41590;53.366;5.212;2023-02-13T16:43:54;6.80;99.90
55693;DHT22;41590;53.366;5.212;2023-02-13T16:59:50;6.60;99.90
55693;DHT22;41590;53.366;5.212;2023-02-13T17:02:35;6.80;99.90
55693;DHT22;41590;53.366;5.212;2023-02-13T17:07:44;6.40;99.90
55693;DHT22;41590;53.366;5.212;2023-02-13T17:10:33;6.90;99.90
55693;DHT22;41590;53.366;5.212;2023-02-13T17:13:20;6.40;99.90
55693;DHT22;41590;53.366;5.212;2023-02-13T17:16:07;6.90;99.90
55693;DHT22;41590;53.366;5.212;2023-02-13T17:18:37;6.90;99.90
55693;DHT22;41590;53.366;5.212;2023-02-13T17:21:07;6.30;99.90
55693;DHT22;41590;53.366;5.212;2023-02-13T17:27:20;6.40;99.90
55693;DHT22;41590;53.366;5.212;2023-02-13T17:29:47;7.00;99.90
55693;DHT22;41590;53.366;5.212;2023-02-13T17:32:29;6.80;99.90
55693;DHT22;41590;53.366;5.212;2023-02-13T17:35:13;6.30;99.90
55693;DHT22;41590;53.366;5.212;2023-02-13T17:37:46;7.00;99.90
55693;DHT22;41590;53.366;5.212;2023-02-13T17:40:18;6.90;99.90
55693;DHT22;41590;53.366;5.212;2023-02-13T17:43:08;6.30;99.90
55693;DHT22;41590;53.366;5.212;2023-02-13T17:45:35;6.30;99.90
55693;DHT22;41590;53.366;5.212;2023-02-13T17:48:07;6.90;99.90
55693;DHT22;41590;53.366;5.212;2023-02-13T17:50:48;6.30;99.90
55693;DHT22;41590;53.366;5.212;2023-02-13T17:56:13;7.00;99.90
55693;DHT22;41590;53.366;5.212;2023-02-13T17:58:44;7.00;99.90
55693;DHT22;41590;53.366;5.212;2023-02-13T18:01:13;6.40;99.90
55693;DHT22;41590;53.366;5.212;2023-02-13T18:03:44;6.40;99.90
55693;DHT22;41590;53.366;5.212;2023-02-13T18:06:11;6.60;99.90
55693;DHT22;41590;53.366;5.212;2023-02-13T18:08:38;6.50;99.90
55693;DHT22;41590;53.366;5.212;2023-02-13T18:11:11;6.90;99.90
55693;DHT22;41590;53.366;5.212;2023-02-13T18:13:37;6.40;99.90
55693;DHT22;41590;53.366;5.212;2023-02-13T18:16:32;6.90;99.90
55693;DHT22;41590;53.366;5.212;2023-02-13T18:21:31;6.30;99.90
55693;DHT22;41590;53.366;5.212;2023-02-13T18:24:08;6.60;99.90
55693;DHT22;41590;53.366;5.212;2023-02-13T18:26:43;6.40;99.90
55693;DHT22;41590;53.366;5.212;2023-02-13T18:29:09;6.50;99.90
55693;DHT22;41590;53.366;5.212;2023-02-13T18:31:37;7.10;99.90
55693;DHT22;41590;53.366;5.212;2023-02-13T18:34:05;6.50;99.90
55693;DHT22;41590;53.366;5.212;2023-02-13T18:36:30;6.40;99.90
55693;DHT22;41590;53.366;5.212;2023-02-13T18:38:57;7.20;99.90
55693;DHT22;41590;53.366;5.212;2023-02-13T18:41:25;6.70;99.90
55693;DHT22;41590;53.366;5.212;2023-02-13T18:44:04;6.50;99.90
55693;DHT22;41590;53.366;5.212;2023-02-13T18:46:31;7.00;99.90
55693;DHT22;41590;53.366;5.212;2023-02-13T18:48:58;6.30;99.90
55693;DHT22;41590;53.366;5.212;2023-02-13T18:51:24;6.30;99.90
55693;DHT22;41590;53.366;5.212;2023-02-13T18:53:59;6.90;99.90
55693;DHT22;41590;53.366;5.212;2023-02-13T18:56:30;6.20;99.90
55693;DHT22;41590;53.366;5.212;2023-02-13T18:59:15;6.50;99.90
55693;DHT22;41590;53.366;5.212;2023-02-13T19:01:41;6.10;99.90
55693;DHT22;41590;53.366;5.212;2023-02-13T19:04:07;6.60;99.90
55693;DHT22;41590;53.366;5.212;2023-02-13T19:06:33;6.60;99.90
55693;DHT22;41590;53.366;5.212;2023-02-13T19:09:02;6.50;99.90
55693;DHT22;41590;53.366;5.212;2023-02-13T19:11:37;5.60;99.90
55693;DHT22;41590;53.366;5.212;2023-02-13T19:14:04;5.70;99.90
55693;DHT22;41590;53.366;5.212;2023-02-13T19:16:31;5.50;99.90
55693;DHT22;41590;53.366;5.212;2023-02-13T20:11:39;6.20;99.90
55693;DHT22;41590;53.366;5.212;2023-02-13T20:14:05;4.50;99.90
55693;DHT22;41590;53.366;5.212;2023-02-13T20:16:37;5.70;99.90
55693;DHT22;41590;53.366;5.212;2023-02-13T20:24:04;5.70;99.90
55693;DHT22;41590;53.366;5.212;2023-02-13T20:26:30;5.30;99.90
55693;DHT22;41590;53.366;5.212;2023-02-13T20:28:58;4.30;99.90
55693;DHT22;41590;53.366;5.212;2023-02-13T20:31:25;4.40;99.90
55693;DHT22;41590;53.366;5.212;2023-02-13T20:33:59;5.00;99.90
55693;DHT22;41590;53.366;5.212;2023-02-13T20:36:31;4.40;99.90
55693;DHT22;41590;53.366;5.212;2023-02-13T20:38:59;4.30;99.90
55693;DHT22;41590;53.366;5.212;2023-02-13T20:41:37;4.50;99.90
55693;DHT22;41590;53.366;5.212;2023-02-13T20:44:07;4.70;99.90
55693;DHT22;41590;53.366;5.212;2023-02-13T20:46:36;5.20;99.90
55693;DHT22;41590;53.366;5.212;2023-02-13T20:49:02;5.40;99.90
55693;DHT22;41590;53.366;5.212;2023-02-13T20:51:30;5.50;99.90
55693;DHT22;41590;53.366;5.212;2023-02-13T20:53:56;5.40;99.90
55693;DHT22;41590;53.366;5.212;2023-02-13T20:56:24;4.50;99.90
55693;DHT22;41590;53.366;5.212;2023-02-13T20:58:55;5.40;99.90
55693;DHT22;41590;53.366;5.212;2023-02-13T21:01:27;4.20;99.90
55693;DHT22;41590;53.366;5.212;2023-02-13T21:03:55;4.10;99.90
55693;DHT22;41590;53.366;5.212;2023-02-13T21:06:29;4.50;99.90
55693;DHT22;41590;53.366;5.212;2023-02-13T21:08:58;4.50;99.90
55693;DHT22;41590;53.366;5.212;2023-02-13T21:11:27;4.20;99.90
55693;DHT22;41590;53.366;5.212;2023-02-13T21:13:55;3.70;99.90
55693;DHT22;41590;53.366;5.212;2023-02-13T21:16:23;5.10;99.90
55693;DHT22;41590;53.366;5.212;2023-02-13T21:18:56;3.60;99.90
55693;DHT22;41590;53.366;5.212;2023-02-13T21:41:14;5.10;99.90
55693;DHT22;41590;53.366;5.212;2023-02-13T21:43:43;4.90;99.90
55693;DHT22;41590;53.366;5.212;2023-02-13T21:48:53;3.40;99.90
55693;DHT22;41590;53.366;5.212;2023-02-13T21:51:24;4.40;99.90
55693;DHT22;41590;53.366;5.212;2023-02-13T21:53:52;4.90;99.90
55693;DHT22;41590;53.366;5.212;2023-02-13T21:56:37;3.40;99.90
55693;DHT22;41590;53.366;5.212;2023-02-13T21:59:04;5.10;99.90
55693;DHT22;41590;53.366;5.212;2023-02-13T22:01:42;3.30;99.90
55693;DHT22;41590;53.366;5.212;2023-02-13T22:04:09;3.30;99.90
55693;DHT22;41590;53.366;5.212;2023-02-13T22:06:38;3.30;99.90
55693;DHT22;41590;53.366;5.212;2023-02-13T22:11:43;5.00;99.90
55693;DHT22;41590;53.366;5.212;2023-02-13T22:14:14;3.30;99.90
55693;DHT22;41590;53.366;5.212;2023-02-13T22:16:44;4.90;99.90
55693;DHT22;41590;53.366;5.212;2023-02-13T22:19:12;5.10;99.90
55693;DHT22;41590;53.366;5.212;2023-02-13T22:21:39;5.20;99.90
55693;DHT22;41590;53.366;5.212;2023-02-13T22:24:05;3.20;99.90
55693;DHT22;41590;53.366;5.212;2023-02-13T22:26:35;4.60;99.90
55693;DHT22;41590;53.366;5.212;2023-02-13T22:29:10;3.10;99.90
55693;DHT22;41590;53.366;5.212;2023-02-13T22:31:36;4.70;99.90